Latest Coastal Weather Observations for Onslow Airport

IDW60701

Issued at 10:12 pm WST Friday 27 May 2016 (issued every 10 minutes, with the page automatically refreshed every 10 minutes)

About coastal observations | Map of coastal stations | Coastal observations for WA | Marine services | Other Formats
Station Details ID: 005017 Name: ONSLOW AIRPORT Lat: -21.67 Lon: 115.11 Height: 10.5 m
Data from the previous 72 hours. | See also: Recent months at Onslow Airport
Date/Time
WST
Temp

°C
Wind Pressure Rain
since 9am
mm
Weather Cloud Vis
km
Sea
Height
m
Swell
Dir
 
Speed
knots
Gust
knots
hPa Trend Height
m
Period
s
Dir
27/10:00pm 22.1 WSW 7 8 1016.4 - 0.0 - - - - - - -
27/09:30pm 22.8 W 9 11 1016.4 - 0.0 - - - - - - -
27/09:00pm 22.9 W 8 9 1016.5 - 0.0 - - - - - - -
27/08:30pm 22.6 W 8 9 1016.3 - 0.0 - - - - - - -
27/08:00pm 23.0 W 7 8 1016.1 - 0.0 - - - - - - -
27/07:30pm 23.3 W 6 7 1015.8 - 0.0 - - - - - - -
27/07:00pm 23.7 W 7 8 1015.6 - 0.0 - - - - - - -
27/06:30pm 24.1 W 8 9 1015.4 - 0.0 - - - - - - -
27/06:00pm 24.6 W 9 11 1015.2 - 0.0 - - - - - - -
27/05:30pm 25.8 WNW 10 13 1014.6 - 0.0 - - - - - - -
27/05:00pm 26.7 NW 11 14 1014.3 - 0.0 - - - - - - -
27/04:30pm 27.4 NW 11 13 1014.1 - 0.0 - - - - - - -
27/04:00pm 28.0 NW 11 16 1014.2 - 0.0 - - - - - - -
27/03:30pm 28.1 NNW 13 17 1013.9 - 0.0 - - - - - - -
27/03:00pm 28.8 NNW 13 17 1013.9 - 0.0 - - - - - - -
27/02:30pm 29.5 N 14 16 1013.8 - 0.0 - - - - - - -
27/02:00pm 29.7 N 13 17 1013.8 - 0.0 - - - - - - -
27/01:30pm 29.8 N 13 17 1014.2 - 0.0 - - - - - - -
27/01:00pm 30.2 NNE 12 16 1014.6 - 0.0 - - - - - - -
27/12:30pm 30.4 NNE 13 16 1014.9 - 0.0 - - - - - - -
27/12:00pm 30.7 NNE 12 16 1015.3 - 0.0 - - - - - - -
27/11:30am 31.1 ENE 8 11 1015.8 - 0.0 - - - - - - -
27/11:00am 30.4 ENE 7 9 1016.3 - 0.0 - - - - - - -
27/10:30am 29.8 E 9 11 1016.6 - 0.0 - - - - - - -
27/10:00am 28.2 SE 9 11 1016.7 - 0.0 - - - - - - -
27/09:30am 27.2 SE 9 11 1016.9 - 0.0 - - - - - - -
27/09:00am 26.0 SE 11 13 1016.9 - 0.0 - - - - - - -
27/08:30am 23.7 SE 10 13 1016.7 - 0.0 - - - - - - -
27/08:00am 22.1 SE 8 11 1016.3 - 0.0 - - - - - - -
27/07:30am 20.4 SSE 10 13 1016.1 - 0.0 - - - - - - -
27/07:00am 19.9 SSE 12 15 1016.1 - 0.0 - - - - - - -
27/06:30am 19.7 S 10 14 1016.0 - 0.0 - - - - - - -
27/06:00am 19.0 S 10 12 1015.9 - 0.0 - - - - - - -
27/05:30am 19.5 S 10 11 1015.7 - 0.0 - - - - - - -
27/05:00am 19.7 SSW 9 12 1015.8 - 0.0 - - - - - - -
27/04:30am 19.7 SSW 9 11 1015.6 - 0.0 - - - - - - -
27/04:00am 19.8 SSW 8 11 1015.6 - 0.0 - - - - - - -
27/03:30am 20.2 SSW 9 11 1015.7 - 0.0 - - - - - - -
27/03:00am 20.8 SSW 10 12 1015.5 - 0.0 - - - - - - -
27/02:30am 21.1 SSW 10 13 1015.6 - 0.0 - - - - - - -
27/02:00am 20.9 S 8 10 1015.7 - 0.0 - - - - - - -
27/01:30am 21.3 S 9 11 1015.9 - 0.0 - - - - - - -
27/01:00am 22.0 S 11 13 1016.2 - 0.0 - - - - - - -
27/12:30am 22.2 S 12 14 1016.5 - 0.0 - - - - - - -
27/12:00am 22.3 S 11 13 1016.5 - 0.0 - - - - - - -
 
Date/Time
WST
Temp

°C
Wind Pressure Rain
since 9am
mm
Weather Cloud Vis
km
Sea
Height
m
Swell
Dir
 
Speed
knots
Gust
knots
hPa Trend Height
m
Period
s
Dir
26/11:30pm 22.5 S 10 14 1016.5 - 0.0 - - - - - - -
26/11:00pm 22.7 S 10 12 1016.5 - 0.0 - - - - - - -
26/10:30pm 23.2 SSW 10 15 1016.6 - 0.0 - - - - - - -
26/10:00pm 23.6 SSW 11 14 1016.5 - 0.0 - - - - - - -
26/09:30pm 24.1 SSW 10 12 1016.5 - 0.0 - - - - - - -
26/09:00pm 24.6 SSW 11 13 1016.4 - 0.0 - - - - - - -
26/08:30pm 25.0 SSW 10 13 1016.4 - 0.0 - - - - - - -
26/08:00pm 25.3 SSW 8 11 1016.2 - 0.0 - - - - - - -
26/07:30pm 25.5 SSW 8 9 1015.9 - 0.0 - - - - - - -
26/07:00pm 25.7 SSW 7 8 1015.5 - 0.0 - - - - - - -
26/06:30pm 26.8 SSW 7 8 1015.1 - 0.0 - - - - - - -
26/06:00pm 27.6 SSW 6 7 1014.8 - 0.0 - - - - - - -
26/05:30pm 29.0 SSW 8 11 1014.5 - 0.0 - - - - - - -
26/05:00pm 29.7 S 8 9 1014.2 - 0.0 - - - - - - -
26/04:30pm 30.4 SSE 8 11 1014.2 - 0.0 - - - - - - -
26/04:00pm 30.1 S 8 12 1014.1 - 0.0 - - - - - - -
26/03:30pm 30.0 S 8 11 1014.2 - 0.0 - - - - - - -
26/03:00pm 30.2 S 9 13 1014.5 - 0.0 - - - - - - -
26/02:30pm 30.2 S 12 17 1014.7 - 0.0 - - - - - - -
26/02:00pm 29.7 S 12 17 1015.0 - 0.0 - - - - - - -
26/01:30pm 29.5 S 12 15 1015.3 - 0.0 - - - - - - -
26/01:00pm 29.6 S 13 18 1015.6 - 0.0 - - - - - - -
26/12:30pm 29.2 S 14 18 1016.0 - 0.0 - - - - - - -
26/12:00pm 28.3 S 14 17 1016.4 - 0.0 - - - - - - -
26/11:30am 28.0 S 15 19 1016.9 - 0.0 - - - - - - -
26/11:00am 27.3 S 14 17 1017.0 - 0.0 - - - - - - -
26/10:30am 26.6 S 15 19 1017.4 - 0.0 - - - - - - -
26/10:00am 26.3 SSE 14 16 1017.5 - 0.0 - - - - - - -
26/09:30am 25.1 S 16 20 1017.6 - 0.0 - - - - - - -
26/09:00am 24.6 S 18 22 1017.4 - 0.0 - - - - - - -
26/08:30am 24.1 S 17 21 1017.1 - 0.0 - - - - - - -
26/08:00am 23.3 S 14 18 1016.7 - 0.0 - - - - - - -
26/07:30am 22.6 SSW 11 15 1016.3 - 0.0 - - - - - - -
26/07:00am 22.3 SSW 9 13 1015.9 - 0.0 - - - - - - -
26/06:30am 22.2 SSW 9 12 1015.6 - 0.0 - - - - - - -
26/06:00am 22.2 SSW 7 9 1015.3 - 0.0 - - - - - - -
26/05:30am 22.7 SSW 8 10 1015.2 - 0.0 - - - - - - -
26/05:00am 22.3 SSW 9 11 1015.0 - 0.0 - - - - - - -
26/04:30am 22.2 SW 7 8 1014.7 - 0.0 - - - - - - -
26/04:00am 22.4 SW 8 10 1014.5 - 0.0 - - - - - - -
26/03:30am 22.5 SW 8 9 1014.4 - 0.0 - - - - - - -
26/03:00am 22.6 SW 9 11 1014.4 - 0.0 - - - - - - -
26/02:30am 21.7 SW 7 8 1014.7 - 0.0 - - - - - - -
26/02:00am 21.7 WSW 6 7 1014.9 - 0.0 - - - - - - -
26/01:30am 21.9 WSW 6 7 1015.0 - 0.0 - - - - - - -
26/01:00am 22.0 WSW 6 7 1015.1 - 0.0 - - - - - - -
26/12:30am 22.2 WSW 7 8 1015.2 - 0.0 - - - - - - -
26/12:00am 22.6 WSW 5 7 1015.0 - 0.0 - - - - - - -
 
Date/Time
WST
Temp

°C
Wind Pressure Rain
since 9am
mm
Weather Cloud Vis
km
Sea
Height
m
Swell
Dir
 
Speed
knots
Gust
knots
hPa Trend Height
m
Period
s
Dir
25/11:30pm 23.0 WSW 7 8 1015.2 - 0.0 - - - - - - -
25/11:00pm 23.1 W 7 9 1015.1 - 0.0 - - - - - - -
25/10:30pm 23.3 W 7 8 1015.0 - 0.0 - - - - - - -
25/10:00pm 23.4 W 6 8 1015.0 - 0.0 - - - - - - -
25/09:30pm 23.7 W 7 9 1014.8 - 0.0 - - - - - - -
25/09:00pm 23.7 W 8 9 1014.6 - 0.0 - - - - - - -
25/08:30pm 23.8 W 8 9 1014.6 - 0.0 - - - - - - -
25/08:00pm 23.9 WNW 9 12 1014.4 - 0.0 - - - - - - -
25/07:30pm 23.9 WNW 10 11 1014.2 - 0.0 - - - - - - -
25/07:00pm 23.9 WNW 10 13 1014.1 - 0.0 - - - - - - -
25/06:30pm 24.0 WNW 10 13 1013.8 - 0.0 - - - - - - -
25/06:00pm 24.2 WNW 10 12 1013.6 - 0.0 - - - - - - -
25/05:30pm 24.8 WNW 11 14 1013.4 - 0.0 - - - - - - -
25/05:00pm 25.4 WNW 11 14 1013.2 - 0.0 - - - - - - -
25/04:30pm 25.7 WNW 13 15 1013.1 - 0.0 - - - - - - -
25/04:00pm 25.7 WNW 13 16 1013.0 - 0.0 - - - - - - -
25/03:30pm 26.2 WNW 13 16 1013.1 - 0.0 - - - - - - -
25/03:00pm 26.2 WNW 14 17 1013.0 - 0.0 - - - - - - -
25/02:30pm 26.5 WNW 14 18 1013.1 - 0.0 - - - - - - -
25/02:00pm 26.7 WNW 14 19 1013.2 - 0.0 - - - - - - -
25/01:30pm 27.2 WNW 13 17 1013.4 - 0.0 - - - - - - -
25/01:00pm 27.5 WNW 12 15 1013.8 - 0.0 - - - - - - -
25/12:30pm 27.5 WNW 11 14 1014.1 - 0.0 - - - - - - -
25/12:00pm 27.2 WNW 10 13 1014.5 - 0.0 - - - - - - -
25/11:30am 26.5 WNW 9 13 1014.8 - 0.0 - - - - - - -
25/11:00am 25.8 W 8 13 1015.0 - 0.0 - - - - - - -
25/10:30am 25.4 WSW 6 8 1015.4 - 0.0 - - - - - - -
25/10:00am 25.7 S 5 8 1015.4 - 0.0 - - - - - - -
25/09:30am 24.6 SSE 6 8 1015.3 - 0.0 - - - - - - -
25/09:00am 23.1 SE 4 6 1014.9 - 0.0 - - - - - - -
25/08:30am 22.8 E 5 6 1014.6 - 0.0 - - - - - - -
25/08:00am 21.7 E 5 6 1014.6 - 0.0 - - - - - - -
25/07:30am 20.2 ENE 5 6 1014.4 - 0.0 - - - - - - -
25/07:00am 18.8 E 5 6 1014.3 - 0.0 - - - - - - -
25/06:30am 18.5 E 5 5 1014.1 - 0.0 - - - - - - -
25/06:00am 18.7 E 4 4 1014.0 - 0.0 - - - - - - -
25/05:30am 18.6 SE 5 6 1013.6 - 0.0 - - - - - - -
25/05:00am 18.5 SSE 6 6 1013.3 - 0.0 - - - - - - -
25/04:30am 19.1 SSE 4 5 1013.2 - 0.0 - - - - - - -
25/04:00am 19.2 S 5 6 1013.3 - 0.0 - - - - - - -
25/03:30am 19.8 S 6 6 1013.2 - 0.0 - - - - - - -
25/03:00am 19.7 S 4 5 1013.4 - 0.0 - - - - - - -
25/02:30am 19.9 S 5 6 1013.5 - 0.0 - - - - - - -
25/02:00am 20.6 SSW 5 6 1013.6 - 0.0 - - - - - - -
25/01:30am 21.0 SSW 7 9 1013.9 - 0.0 - - - - - - -
25/01:00am 21.4 SW 7 9 1014.3 - 0.0 - - - - - - -
25/12:30am 21.4 SW 9 11 1014.4 - 0.0 - - - - - - -
25/12:00am 21.7 SW 8 11 1014.6 - 0.0 - - - - - - -
 
Date/Time
WST
Temp

°C
Wind Pressure Rain
since 9am
mm
Weather Cloud Vis
km
Sea
Height
m
Swell
Dir
 
Speed
knots
Gust
knots
hPa Trend Height
m
Period
s
Dir
24/11:30pm 22.4 SW 9 11 1014.7 - 0.0 - - - - - - -
24/11:00pm 22.0 SW 7 8 1014.8 - 0.0 - - - - - - -
24/10:30pm 21.4 SW 7 8 1014.9 - 0.0 - - - - - - -

Other Formats:

Comma delimited format used in spreadsheet applications
http://www.bom.gov.au/fwo/IDW60701/IDW60701.95305.axf

JavaScript Object Notation format (JSON) in row-major order
http://www.bom.gov.au/fwo/IDW60701/IDW60701.95305.json